Date,TemperatureHighF,TemperatureAvgF,TemperatureLowF,DewpointHighF,DewpointAvgF,DewpointLowF,HumidityHigh,HumidityAvg,HumidityLow,PressureMaxIn,PressureMinIn,WindSpeedMaxMPH,WindSpeedAvgMPH,GustSpeedMaxMPH,PrecipitationSumIn
2013-9-1,84,78,74,77,75,72,94,91,80,29.82,29.69,1,0,5,0.02
2013-9-2,74,74,74,72,72,72,94,94,94,29.77,29.68,1,0,3,0.10
2013-9-3,80,74,63,72,67,60,94,81,58,29.85,29.67,4,0,10,0.13
2013-9-4,81,69,61,64,61,60,96,80,55,29.95,29.83,3,0,11,0.00
2013-9-5,77,67,57,66,57,48,95,73,43,30.12,29.86,13,1,14,0.00
2013-9-6,71,60,51,52,48,45,88,67,44,30.24,30.10,2,0,7,0.00
2013-9-7,80,65,49,60,54,46,93,69,40,30.10,29.83,2,0,7,0.00
2013-9-8,80,70,59,69,59,48,92,70,47,30.03,29.76,7,1,14,0.00
2013-9-9,73,63,50,61,54,47,87,73,53,30.21,30.03,3,0,7,0.00
2013-9-10,86,73,65,77,69,61,94,88,74,30.12,29.97,3,0,6,0.00
2013-9-11,94,83,76,81,77,72,94,82,64,30.05,29.86,2,0,7,0.00
2013-9-12,87,74,68,78,72,67,96,92,73,29.90,29.59,2,0,12,0.85
2013-9-13,74,67,56,67,62,50,96,84,64,29.82,29.55,9,1,15,0.02
2013-9-14,65,57,51,53,49,46,86,75,63,30.11,29.82,6,1,13,0.00
2013-9-15,72,59,46,56,50,44,96,75,45,30.19,30.06,3,0,6,0.00
2013-9-16,72,61,55,59,55,50,96,82,57,30.22,29.98,5,1,9,0.01
2013-9-17,64,54,46,50,44,40,91,69,48,30.42,30.22,6,1,14,0.00
2013-9-18,72,57,43,53,48,40,97,75,44,30.35,30.15,3,0,5,0.00
2013-9-19,76,61,47,58,52,46,97,76,46,30.17,30.00,2,0,7,0.00
2013-9-20,79,64,53,65,58,52,96,81,56,30.07,29.91,2,0,6,0.00
2013-9-21,76,32,-21,67,28,-22,97,89,64,29.96,29.62,4,0,12,0.52
2013-9-22,68,62,-39,67,54,-47,97,79,58,29.89,29.58,7,1,13,0.17
2013-9-23,63,54,47,49,45,42,85,72,57,30.03,29.89,7,1,14,0.01
2013-9-24,71,57,43,53,47,41,95,72,47,30.05,29.85,6,1,12,0.00
2013-9-25,71,59,46,57,50,43,94,74,51,29.94,29.84,3,0,9,0.00
2013-9-26,69,58,51,60,55,49,96,88,72,30.07,29.90,5,0,9,0.00
2013-9-27,69,59,50,57,54,48,96,82,62,30.23,30.07,4,0,7,0.00
2013-9-28,70,61,52,59,54,51,96,79,57,30.29,30.20,3,0,11,0.01
2013-9-29,71,59,52,61,55,51,97,85,63,30.21,30.02,2,0,5,0.00
2013-9-30,74,61,53,60,55,52,97,83,57,30.06,29.91,4,0,5,0.00